Time;durP1;ratioP1;P1;durP2;ratioP2;P2;SDS_P1;SDS_P2;PMS_P1;PMS_P2;Temp;Humidity;BMP_temperature;BMP_pressure;BME280_temperature;BME280_humidity;BME280_pressure;Samples;Min_cycle;Max_cycle;Signal;HPM_P1;HPM_P2
2022/04/06 00:00:19;;;;;;;14.55;8.18;;;;;;;-144.47;65.46;53469.88;5068389;28;20546;-73
2022/04/06 00:02:46;;;;;;;18.13;9.38;;;;;;;-144.47;65.62;53465.91;5067439;28;20433;-72
2022/04/06 00:05:11;;;;;;;14.75;7.78;;;;;;;-144.47;65.82;53471.84;5066856;28;20032;-73
2022/04/06 00:07:38;;;;;;;15.50;8.32;;;;;;;-144.47;66.21;53495.69;5067021;28;20031;-73
2022/04/06 00:10:04;;;;;;;17.05;8.73;;;;;;;-144.47;66.54;53479.81;5068037;28;20025;-72
2022/04/06 00:12:30;;;;;;;14.63;8.10;;;;;;;-144.47;66.91;53479.81;5069528;28;20024;-71
2022/04/06 00:14:56;;;;;;;15.25;7.85;;;;;;;-144.47;67.56;53459.94;5069728;28;20025;-74
2022/04/06 00:17:21;;;;;;;14.90;8.27;;;;;;;-144.47;68.38;53509.59;5068330;28;20025;-72
2022/04/06 00:19:46;;;;;;;15.05;8.63;;;;;;;-144.47;68.88;53507.59;5066694;28;20040;-72
2022/04/06 00:22:12;;;;;;;15.65;7.78;;;;;;;-144.47;69.44;53481.78;5067349;28;20074;-73
2022/04/06 00:24:37;;;;;;;17.23;9.00;;;;;;;-144.47;70.11;53515.56;5066901;28;20181;-75
2022/04/06 00:27:03;;;;;;;18.90;8.55;;;;;;;-144.47;70.67;53513.56;5068252;28;20033;-72
2022/04/06 00:29:28;;;;;;;15.95;8.50;;;;;;;-144.47;70.91;53507.59;5067656;28;20025;-72
2022/04/06 00:31:54;;;;;;;17.00;8.68;;;;;;;-144.47;71.16;53493.72;5068047;28;20029;-70
2022/04/06 00:34:19;;;;;;;14.82;7.97;;;;;;;-144.47;71.66;53481.78;5067097;28;21088;-69
2022/04/06 00:36:44;;;;;;;16.85;7.82;;;;;;;-144.47;71.75;53523.50;5067676;28;20501;-72
2022/04/06 00:39:11;;;;;;;16.85;9.00;;;;;;;-144.47;71.77;53483.78;5067146;28;20040;-73
2022/04/06 00:41:39;;;;;;;20.17;9.40;;;;;;;-144.47;72.00;53511.59;5067822;28;20039;-71
2022/04/06 00:44:15;;;;;;;17.55;9.25;;;;;;;-144.47;72.00;53499.66;5066523;28;20090;-71
2022/04/06 00:46:43;;;;;;;14.50;8.00;;;;;;;-144.47;72.12;53511.59;5061263;28;20552;-70
2022/04/06 00:49:14;;;;;;;15.38;7.97;;;;;;;-144.47;72.36;53491.72;5067553;28;20030;-71
2022/04/06 00:51:47;;;;;;;18.73;8.73;;;;;;;-144.47;72.42;53515.56;5067645;28;20021;-70
2022/04/06 00:54:18;;;;;;;14.63;8.85;;;;;;;-144.47;72.50;53501.66;5066249;28;20032;-70
2022/04/06 00:56:45;;;;;;;16.83;8.88;;;;;;;-144.47;72.77;53527.47;5067799;28;20035;-72
2022/04/06 00:59:11;;;;;;;15.52;9.18;;;;;;;-144.47;73.03;53485.75;5066766;28;20078;-73
2022/04/06 01:01:37;;;;;;;14.60;8.45;;;;;;;-144.47;73.08;53491.72;5067485;28;20512;-72
2022/04/06 01:04:03;;;;;;;17.58;10.30;;;;;;;-144.47;73.16;53505.63;5066618;28;20028;-72
2022/04/06 01:06:28;;;;;;;20.10;9.55;;;;;;;-144.47;73.46;53491.72;5026425;28;20115;-68
2022/04/06 01:08:54;;;;;;;16.48;9.70;;;;;;;-144.47;73.41;53513.56;5066213;28;20116;-71
2022/04/06 01:11:20;;;;;;;19.13;9.55;;;;;;;-144.47;73.72;53533.44;5067895;28;20070;-72
2022/04/06 01:13:47;;;;;;;16.75;10.35;;;;;;;-144.47;73.58;53481.78;5070660;28;20044;-72
2022/04/06 01:16:13;;;;;;;18.27;10.10;;;;;;;-144.47;73.98;53549.34;5068400;28;20027;-71
2022/04/06 01:18:40;;;;;;;19.67;11.13;;;;;;;-144.47;73.86;53523.50;5068589;28;20063;-70
2022/04/06 01:21:06;;;;;;;20.38;10.85;;;;;;;-144.47;73.50;53527.47;5086923;22;20394;-67
2022/04/06 01:23:31;;;;;;;18.23;10.57;;;;;;;-144.47;73.49;53491.72;5075683;28;20031;-68
2022/04/06 01:25:57;;;;;;;21.20;10.95;;;;;;;-144.47;73.29;53523.50;5058434;28;20062;-66
2022/04/06 01:28:22;;;;;;;22.10;10.63;;;;;;;-144.47;72.99;53515.56;5076114;28;20025;-67
2022/04/06 01:30:48;;;;;;;19.80;10.15;;;;;;;-144.47;72.90;53491.72;5071683;28;20515;-68
2022/04/06 01:33:13;;;;;;;17.20;10.02;;;;;;;-144.47;72.77;53519.53;5073653;28;20044;-68
2022/04/06 01:35:41;;;;;;;16.98;8.68;;;;;;;-144.47;72.22;53505.63;5075045;28;20509;-67
2022/04/06 01:38:06;;;;;;;15.00;8.35;;;;;;;-144.47;72.08;53513.56;5075623;28;20398;-68
2022/04/06 01:40:33;;;;;;;20.27;8.43;;;;;;;-144.47;71.23;53497.69;5075795;28;20267;-65
2022/04/06 01:42:58;;;;;;;15.07;8.00;;;;;;;-144.47;70.69;53523.50;5075525;28;20132;-68
2022/04/06 01:45:24;;;;;;;13.57;7.78;;;;;;;-144.47;70.57;53491.72;5075239;28;20048;-66
2022/04/06 01:47:49;;;;;;;15.93;7.78;;;;;;;-144.47;70.78;53495.69;5070297;28;20430;-67
2022/04/06 01:52:58;;;;;;;13.02;7.35;;;;;;;-144.47;71.73;53485.75;5073848;28;20059;-67
2022/04/06 01:55:24;;;;;;;13.70;7.07;;;;;;;-144.47;71.98;53541.38;5073869;28;20020;-66
2022/04/06 01:57:49;;;;;;;17.48;9.30;;;;;;;-144.47;72.42;53505.63;5074245;28;20569;-68
2022/04/06 02:00:18;;;;;;;14.43;8.63;;;;;;;-144.47;72.90;53479.81;5073343;28;20043;-67
2022/04/06 02:02:51;;;;;;;18.48;9.52;;;;;;;-144.47;73.58;53507.59;5056020;28;20029;-66
2022/04/06 02:05:17;;;;;;;20.92;10.32;;;;;;;-144.47;73.92;53521.50;5072461;28;20043;-68
2022/04/06 02:07:43;;;;;;;19.88;11.35;;;;;;;-144.47;74.08;53549.34;5074521;28;20024;-68
2022/04/06 02:10:09;;;;;;;18.85;10.00;;;;;;;-144.47;74.01;53489.72;5074233;28;20066;-68
2022/04/06 02:12:35;;;;;;;20.75;10.77;;;;;;;-144.47;74.17;53511.59;5074924;28;20450;-68
2022/04/06 02:15:01;;;;;;;22.58;11.45;;;;;;;-144.47;74.22;53529.47;5074347;28;20448;-69
2022/04/06 02:17:28;;;;;;;22.85;12.43;;;;;;;-144.47;74.64;53533.44;5070240;28;20044;-68
2022/04/06 02:19:53;;;;;;;20.77;11.77;;;;;;;-144.47;74.62;53529.47;5072431;28;20041;-68
2022/04/06 02:22:19;;;;;;;22.52;11.80;;;;;;;-144.47;74.88;53525.50;5070207;28;20180;-68
2022/04/06 02:24:45;;;;;;;22.42;12.80;;;;;;;-144.47;75.17;53519.53;5072392;28;20024;-67
2022/04/06 02:27:10;;;;;;;30.85;13.68;;;;;;;-144.47;75.33;53559.25;5073378;28;20518;-69
2022/04/06 02:29:38;;;;;;;22.33;13.40;;;;;;;-144.47;75.29;53557.28;5073442;28;20040;-67
2022/04/06 02:32:04;;;;;;;25.23;13.38;;;;;;;-144.47;75.36;53535.41;5073176;28;20029;-67
2022/04/06 02:34:30;;;;;;;20.98;12.98;;;;;;;-144.47;75.50;53531.44;5071226;28;20074;-67
2022/04/06 02:36:55;;;;;;;26.02;13.98;;;;;;;-144.47;75.19;53521.50;5073189;28;20137;-65
2022/04/06 02:39:20;;;;;;;22.75;12.60;;;;;;;-144.47;75.22;53527.47;5072570;28;20028;-66
2022/04/06 02:41:46;;;;;;;22.15;13.07;;;;;;;-144.47;74.91;53531.44;5071875;28;20024;-66
2022/04/06 02:44:11;;;;;;;24.67;13.15;;;;;;;-144.47;74.78;53493.72;5067473;28;20040;-69
2022/04/06 02:46:36;;;;;;;24.23;12.48;;;;;;;-144.47;74.69;53543.38;5061232;28;20040;-69
2022/04/06 02:49:02;;;;;;;24.42;13.25;;;;;;;-144.47;74.46;53523.50;5072860;28;20021;-67
2022/04/06 02:51:27;;;;;;;22.02;14.02;;;;;;;-144.47;74.73;53511.59;5073543;28;20020;-69
2022/04/06 02:53:53;;;;;;;28.88;12.90;;;;;;;-144.47;74.40;53529.47;5073890;28;20040;-67
2022/04/06 02:56:18;;;;;;;23.92;12.40;;;;;;;-144.47;74.26;53539.41;5072156;28;20039;-66
2022/04/06 02:58:43;;;;;;;24.33;12.38;;;;;;;-144.47;74.12;53531.44;5056753;28;20032;-66
2022/04/06 03:01:09;;;;;;;26.60;13.93;;;;;;;-144.47;73.62;53529.47;5073659;28;20035;-67
2022/04/06 03:03:34;;;;;;;23.33;12.88;;;;;;;-144.47;73.32;53553.31;5057375;28;20032;-66
2022/04/06 03:06:01;;;;;;;23.00;14.00;;;;;;;-144.47;72.92;53559.25;5074802;28;20623;-68
2022/04/06 03:08:26;;;;;;;22.85;12.90;;;;;;;-144.47;72.84;53547.34;5075132;28;20036;-66
2022/04/06 03:10:53;;;;;;;24.77;14.05;;;;;;;-144.47;73.23;53559.25;5071707;28;20059;-67
2022/04/06 03:13:19;;;;;;;21.60;13.38;;;;;;;-144.47;73.41;53543.38;5079995;28;20056;-67
2022/04/06 03:15:44;;;;;;;24.63;14.02;;;;;;;-144.47;73.84;53533.44;5076433;28;20044;-67
2022/04/06 03:18:09;;;;;;;26.77;14.82;;;;;;;-144.47;74.01;53537.41;5073298;28;20066;-68
2022/04/06 03:20:35;;;;;;;25.58;13.85;;;;;;;-144.47;74.02;53545.34;5074122;28;20037;-66
2022/04/06 03:23:00;;;;;;;28.83;14.45;;;;;;;-144.47;72.04;53541.38;5073864;28;20033;-67
2022/04/06 03:25:25;;;;;;;30.90;14.52;;;;;;;-144.47;71.56;53553.31;5076336;28;20245;-66
2022/04/06 03:27:52;;;;;;;24.65;12.27;;;;;;;-144.47;70.60;53549.34;5075731;28;20037;-66
2022/04/06 03:30:18;;;;;;;27.33;12.43;;;;;;;-144.47;70.14;53555.28;5073448;28;20032;-67
2022/04/06 03:32:43;;;;;;;23.67;12.40;;;;;;;-144.47;70.20;53527.47;5073548;28;20035;-65
2022/04/06 03:35:09;;;;;;;24.10;11.00;;;;;;;-144.47;69.72;53523.50;5071320;28;20525;-68
2022/04/06 03:37:34;;;;;;;20.75;10.55;;;;;;;-144.47;69.10;53519.53;5055207;28;20485;-67
2022/04/06 03:40:01;;;;;;;19.73;10.00;;;;;;;-144.47;68.40;53503.63;5071651;28;20078;-68
2022/04/06 03:42:27;;;;;;;18.58;8.05;;;;;;;-144.47;68.05;53503.63;5072219;28;20032;-68
2022/04/06 03:44:52;;;;;;;19.65;7.53;;;;;;;-144.47;67.64;53535.41;5071998;28;20537;-66
2022/04/06 03:47:17;;;;;;;19.83;7.30;;;;;;;-144.47;67.57;53525.50;5072791;28;20063;-68
2022/04/06 03:49:43;;;;;;;17.30;6.35;;;;;;;-144.47;67.15;53471.84;5069974;28;20119;-68
2022/04/06 03:52:08;;;;;;;18.05;6.70;;;;;;;-144.47;67.65;53535.41;5072200;28;20478;-69
2022/04/06 03:54:34;;;;;;;23.42;7.90;;;;;;;-144.47;67.64;53519.53;5070525;28;20141;-68
2022/04/06 03:57:00;;;;;;;22.27;6.72;;;;;;;-144.47;66.76;53559.25;5067656;28;20059;-70
2022/04/06 03:59:25;;;;;;;20.30;6.50;;;;;;;-144.47;66.88;53485.75;5071618;28;20100;-68
2022/04/06 04:01:51;;;;;;;16.10;6.57;;;;;;;-144.47;66.78;53503.63;5066271;28;20081;-68
2022/04/06 04:04:16;;;;;;;21.63;7.07;;;;;;;-144.47;66.73;53507.59;5070475;28;20047;-67
2022/04/06 04:06:41;;;;;;;21.67;6.72;;;;;;;-144.47;66.68;53495.69;5068873;28;20028;-67
2022/04/06 04:09:07;;;;;;;17.92;6.82;;;;;;;-144.47;66.56;53450.00;5054451;28;20032;-68
2022/04/06 04:11:33;;;;;;;20.83;6.93;;;;;;;-144.47;66.52;53535.41;5062609;28;20023;-68
2022/04/06 04:13:59;;;;;;;15.60;6.03;;;;;;;-144.47;66.41;53491.72;5076138;28;20063;-68
2022/04/06 04:16:25;;;;;;;18.63;6.40;;;;;;;-144.47;66.13;53511.59;5073152;28;20539;-69
2022/04/06 04:18:50;;;;;;;19.85;7.55;;;;;;;-144.47;66.12;53515.56;5072152;28;20037;-68
2022/04/06 04:21:34;;;;;;;16.77;6.35;;;;;;;-144.47;66.32;53507.59;5071502;28;20526;-70
2022/04/06 04:24:08;;;;;;;20.90;6.30;;;;;;;-144.47;66.54;53513.56;5070381;28;20041;-68
2022/04/06 04:26:34;;;;;;;20.92;7.32;;;;;;;-144.47;66.49;53475.81;5069565;28;20041;-69
2022/04/06 04:29:00;;;;;;;17.08;6.30;;;;;;;-144.47;66.36;53495.69;5043303;28;20043;-69
2022/04/06 04:31:25;;;;;;;15.48;6.85;;;;;;;-144.47;66.66;53537.41;5065441;28;20020;-69
2022/04/06 04:33:51;;;;;;;17.23;6.68;;;;;;;-144.47;66.71;53495.69;5060625;28;20037;-68
2022/04/06 04:36:16;;;;;;;20.27;7.50;;;;;;;-144.47;66.94;53485.75;5068199;28;20569;-67
2022/04/06 04:38:42;;;;;;;15.55;6.82;;;;;;;-144.47;66.33;53513.56;5070148;28;20593;-68
2022/04/06 04:41:08;;;;;;;20.65;6.90;;;;;;;-144.47;66.41;53519.53;5070747;28;20063;-68
2022/04/06 04:43:35;;;;;;;23.73;7.20;;;;;;;-144.47;66.36;53519.53;5070574;28;20074;-68
2022/04/06 04:46:00;;;;;;;27.90;8.95;;;;;;;-144.47;66.60;53527.47;5070080;28;20076;-68
2022/04/06 04:48:26;;;;;;;23.27;9.70;;;;;;;-144.47;66.57;53527.47;5069480;28;20091;-66
2022/04/06 04:50:57;;;;;;;21.38;8.70;;;;;;;-144.47;66.85;53505.63;5063432;28;20029;-68
2022/04/06 04:53:23;;;;;;;23.38;9.13;;;;;;;-144.47;67.24;53491.72;5066674;28;20040;-67
2022/04/06 04:55:49;;;;;;;20.08;9.73;;;;;;;-144.47;67.36;53543.38;5074197;28;20037;-67
2022/04/06 04:58:14;;;;;;;19.50;9.82;;;;;;;-144.47;67.45;53519.53;5069529;28;20032;-66
2022/04/06 05:00:39;;;;;;;21.10;10.10;;;;;;;-144.47;67.58;53491.72;5073723;28;20529;-67
2022/04/06 05:03:05;;;;;;;21.42;9.65;;;;;;;-144.47;67.86;53505.63;5072974;28;20553;-66
2022/04/06 05:05:31;;;;;;;22.90;9.80;;;;;;;-144.47;67.90;53513.56;5072929;28;20142;-67
2022/04/06 05:07:59;;;;;;;24.73;10.73;;;;;;;-144.47;68.00;53499.66;5071990;28;20036;-66
2022/04/06 05:10:25;;;;;;;26.67;11.30;;;;;;;-144.47;67.88;53475.81;5071636;28;20020;-67
2022/04/06 05:12:51;;;;;;;27.30;11.73;;;;;;;-144.47;67.79;53543.38;5073525;28;20501;-67
2022/04/06 05:15:16;;;;;;;22.30;11.00;;;;;;;-144.47;67.67;53539.41;5066918;28;20044;-67
2022/04/06 05:17:41;;;;;;;21.23;11.90;;;;;;;-144.47;67.73;53501.66;5073514;28;20036;-68
2022/04/06 05:20:07;;;;;;;26.98;12.55;;;;;;;-144.47;68.02;53523.50;5069977;28;20031;-68
2022/04/06 05:22:33;;;;;;;24.98;11.30;;;;;;;-144.47;67.95;53521.50;5072505;28;20395;-70
2022/04/06 05:25:00;;;;;;;25.10;11.13;;;;;;;-144.47;67.45;53505.63;5051630;28;20101;-67
2022/04/06 05:27:25;;;;;;;23.92;11.43;;;;;;;-144.47;67.95;53521.50;5073379;28;20039;-69
2022/04/06 05:29:50;;;;;;;21.90;11.13;;;;;;;-144.47;67.78;53465.91;5074318;28;21205;-69
2022/04/06 05:32:16;;;;;;;19.48;10.20;;;;;;;-144.47;66.59;53507.59;5074923;28;20048;-66
2022/04/06 05:34:41;;;;;;;26.50;10.40;;;;;;;-144.47;66.16;53527.47;5070486;28;20165;-68
2022/04/06 05:37:06;;;;;;;24.77;10.60;;;;;;;-144.47;66.25;53523.50;5074179;28;20039;-67
2022/04/06 05:39:31;;;;;;;20.65;10.30;;;;;;;-144.47;65.70;53507.59;5071089;28;20108;-68
2022/04/06 05:41:57;;;;;;;28.42;10.82;;;;;;;-144.47;65.86;53527.47;5071649;28;20037;-68
2022/04/06 05:44:22;;;;;;;24.95;9.85;;;;;;;-144.47;66.01;53453.97;5066750;28;20096;-69
2022/04/06 05:46:47;;;;;;;20.40;9.63;;;;;;;-144.47;65.85;53491.72;5068912;28;20047;-70
2022/04/06 05:49:13;;;;;;;24.02;9.70;;;;;;;-144.47;65.96;53509.59;5047455;28;20029;-67
2022/04/06 05:51:39;;;;;;;24.38;9.88;;;;;;;-144.47;65.96;53513.56;5074262;28;20135;-72
2022/04/06 05:54:04;;;;;;;20.05;9.65;;;;;;;-144.47;66.17;53481.78;5072956;28;20044;-67
2022/04/06 05:56:30;;;;;;;21.30;9.38;;;;;;;-144.47;65.90;53477.81;5075095;28;20116;-68
2022/04/06 05:58:55;;;;;;;21.88;10.05;;;;;;;-144.47;65.94;53513.56;5073628;28;20032;-67
2022/04/06 06:01:21;;;;;;;18.17;9.55;;;;;;;-144.47;66.00;53505.63;5070149;28;20588;-67
2022/04/06 06:03:47;;;;;;;24.52;9.57;;;;;;;-144.47;65.60;53507.59;5055609;28;20033;-69
2022/04/06 06:06:12;;;;;;;21.60;11.30;;;;;;;-144.47;66.05;53507.59;5072789;28;20035;-68
2022/04/06 06:08:38;;;;;;;22.23;10.25;;;;;;;-144.47;66.07;53489.72;5073618;28;20115;-68
2022/04/06 06:11:04;;;;;;;28.63;10.18;;;;;;;-144.47;65.56;53521.50;5077406;28;20033;-68
2022/04/06 06:13:30;;;;;;;23.13;9.45;;;;;;;-144.47;65.75;53487.75;5071948;28;20113;-69
2022/04/06 06:15:56;;;;;;;18.83;8.77;;;;;;;-144.47;65.59;53477.81;5075053;28;20474;-68
2022/04/06 06:18:22;;;;;;;25.50;9.82;;;;;;;-144.47;65.72;53517.53;5075472;28;20025;-69
2022/04/06 06:20:47;;;;;;;16.63;8.95;;;;;;;-144.47;65.67;53503.63;5073120;28;20036;-68
2022/04/06 06:23:13;;;;;;;16.33;8.93;;;;;;;-144.47;65.67;53499.66;5073666;28;20067;-70
2022/04/06 06:25:38;;;;;;;19.10;8.52;;;;;;;-144.47;65.37;53479.81;5072875;28;20027;-68
2022/04/06 06:28:03;;;;;;;17.38;8.70;;;;;;;-144.47;65.77;53513.56;5074726;28;20023;-68
2022/04/06 06:30:29;;;;;;;20.25;8.43;;;;;;;-144.47;65.60;53549.34;5071557;28;20024;-69
2022/04/06 06:32:54;;;;;;;20.90;9.30;;;;;;;-144.47;65.62;53467.88;5074187;28;20158;-68
2022/04/06 06:35:21;;;;;;;17.38;9.07;;;;;;;-144.47;65.20;53501.66;5068377;28;20191;-68
2022/04/06 06:37:48;;;;;;;17.95;7.97;;;;;;;-144.47;65.03;53475.81;5071682;28;20045;-68
2022/04/06 06:40:14;;;;;;;22.40;9.05;;;;;;;-144.47;65.13;53477.81;5073326;28;20025;-69
2022/04/06 06:42:40;;;;;;;18.15;8.65;;;;;;;-144.47;64.75;53479.81;5073061;28;20139;-68
2022/04/06 06:45:05;;;;;;;15.80;8.30;;;;;;;-144.47;64.86;53471.84;5055135;28;20052;-69
2022/04/06 06:47:31;;;;;;;18.60;8.27;;;;;;;-144.47;64.85;53495.69;5074934;28;20037;-68
2022/04/06 06:49:56;;;;;;;22.77;9.05;;;;;;;-144.47;64.25;53489.72;5073744;28;20131;-68
2022/04/06 06:52:21;;;;;;;17.65;9.05;;;;;;;-144.47;64.07;53481.78;5072735;28;20040;-67
2022/04/06 06:54:46;;;;;;;17.48;8.15;;;;;;;-144.47;64.03;53515.56;5073938;28;20037;-69
2022/04/06 06:57:12;;;;;;;19.70;8.23;;;;;;;-144.47;63.78;53487.75;5072701;28;20063;-68
2022/04/06 06:59:37;;;;;;;22.52;8.80;;;;;;;-144.47;64.00;53479.81;5072048;28;20028;-68
2022/04/06 07:02:03;;;;;;;20.98;8.68;;;;;;;-144.47;63.63;53511.59;5071981;28;20088;-67
2022/04/06 07:04:29;;;;;;;17.77;7.97;;;;;;;-144.47;63.49;53487.75;5072017;28;20563;-69
2022/04/06 07:06:54;;;;;;;20.40;8.90;;;;;;;-144.47;63.22;53507.59;5053147;28;20028;-70
2022/04/06 07:09:19;;;;;;;18.38;8.80;;;;;;;-144.47;63.75;53527.47;5072788;28;20036;-68
2022/04/06 07:11:44;;;;;;;16.77;8.57;;;;;;;-144.47;63.63;53453.97;5076402;28;20062;-68
2022/04/06 07:14:10;;;;;;;19.42;8.68;;;;;;;-144.47;63.57;53517.53;5073420;28;20063;-67
2022/04/06 07:16:36;;;;;;;18.52;9.88;;;;;;;-144.47;63.82;53481.78;5073500;28;20068;-68
2022/04/06 07:19:01;;;;;;;13.27;7.85;;;;;;;-144.47;63.37;53469.88;5073707;28;20024;-69
2022/04/06 07:21:27;;;;;;;21.30;8.07;;;;;;;-144.47;63.15;53459.94;5070683;22;20613;-71
2022/04/06 07:23:54;;;;;;;22.73;8.63;;;;;;;-144.47;63.20;53487.75;5027453;28;20590;-73
2022/04/06 07:26:19;;;;;;;20.00;8.32;;;;;;;-144.47;62.43;53471.84;5048707;28;20124;-72
2022/04/06 07:28:45;;;;;;;20.40;9.38;;;;;;;-144.47;61.88;53467.88;5048952;28;20490;-69
2022/04/06 07:31:12;;;;;;;17.33;8.40;;;;;;;-144.47;61.51;53521.50;5039767;28;20029;-70
2022/04/06 07:33:38;;;;;;;23.35;8.73;;;;;;;-144.47;61.43;53511.59;5025858;28;20124;-70
2022/04/06 07:36:13;;;;;;;16.73;8.10;;;;;;;-144.47;61.83;53521.50;5027655;28;20460;-71
2022/04/06 07:38:39;;;;;;;26.38;10.05;;;;;;;-144.47;61.66;53499.66;5031725;28;20041;-72
2022/04/06 07:41:04;;;;;;;21.33;10.60;;;;;;;-144.47;60.92;53523.50;5011822;28;20029;-70
2022/04/06 07:43:29;;;;;;;15.15;8.00;;;;;;;-144.47;60.87;53497.69;5027902;28;20510;-70
2022/04/06 07:45:55;;;;;;;19.98;8.40;;;;;;;-144.47;60.30;53477.81;5036134;28;20022;-71
2022/04/06 07:48:22;;;;;;;22.90;8.65;;;;;;;-144.47;60.00;53543.38;5029026;28;20045;-69
2022/04/06 07:50:47;;;;;;;18.83;8.63;;;;;;;-144.47;59.47;53452.00;5027519;28;20095;-72
2022/04/06 07:53:13;;;;;;;20.05;7.55;;;;;;;-144.47;59.07;53463.91;5028041;28;20031;-70
2022/04/06 07:55:38;;;;;;;20.80;8.13;;;;;;;-144.47;58.98;53511.59;5028470;28;20521;-71
2022/04/06 07:58:04;;;;;;;18.27;8.48;;;;;;;-144.47;59.01;53475.81;5036145;28;20029;-69
2022/04/06 08:00:33;;;;;;;19.33;7.78;;;;;;;-144.47;58.54;53493.72;5029205;28;20447;-74
2022/04/06 08:02:59;;;;;;;22.75;8.27;;;;;;;-144.47;58.08;53487.75;5031121;28;20606;-77
2022/04/06 08:05:24;;;;;;;19.25;7.47;;;;;;;-144.47;57.70;53501.66;5027598;28;20031;-71
2022/04/06 08:07:53;;;;;;;22.77;7.45;;;;;;;-144.47;57.56;53452.00;5028233;28;20037;-75
2022/04/06 08:10:19;;;;;;;22.33;8.52;;;;;;;-144.47;57.44;53489.72;5027542;28;20034;-72
2022/04/06 08:12:46;;;;;;;23.05;8.73;;;;;;;-144.47;56.97;53465.91;5028072;28;20033;-72
2022/04/06 08:15:12;;;;;;;22.92;7.35;;;;;;;-144.47;56.15;53483.78;5032982;28;20045;-70
2022/04/06 08:17:40;;;;;;;15.30;6.88;;;;;;;-144.47;56.26;53436.09;5032545;28;20041;-70
2022/04/06 08:20:08;;;;;;;20.48;7.35;;;;;;;-144.47;56.24;53469.88;5034775;28;20079;-69
2022/04/06 08:22:34;;;;;;;17.77;7.18;;;;;;;-144.47;56.16;53481.78;5026038;28;20403;-73
2022/04/06 08:24:59;;;;;;;18.50;7.43;;;;;;;-144.47;55.44;53473.84;5031058;28;20040;-70
2022/04/06 08:27:24;;;;;;;22.05;7.32;;;;;;;-144.47;55.72;53444.03;5029171;28;20025;-74
2022/04/06 08:29:49;;;;;;;25.48;9.32;;;;;;;-144.47;55.13;53481.78;5030972;28;20040;-71
2022/04/06 08:32:15;;;;;;;23.67;8.55;;;;;;;-144.47;55.10;53467.88;5037879;28;20567;-71
2022/04/06 08:34:40;;;;;;;21.13;7.20;;;;;;;-144.47;54.97;53471.84;5012757;28;20658;-71
2022/04/06 08:37:08;;;;;;;15.07;6.88;;;;;;;-144.47;54.40;53471.84;5030621;28;20025;-67
2022/04/06 08:39:33;;;;;;;19.92;7.55;;;;;;;-144.47;54.05;53469.88;5029993;28;20029;-72
2022/04/06 08:41:59;;;;;;;19.17;7.00;;;;;;;-144.47;54.25;53459.94;5030624;28;20394;-71
2022/04/06 08:44:25;;;;;;;18.73;6.82;;;;;;;-144.47;53.84;53475.81;5013632;28;20823;-71
2022/04/06 08:46:52;;;;;;;14.88;6.82;;;;;;;-144.47;53.81;53479.81;5036516;28;20116;-68
2022/04/06 08:49:19;;;;;;;29.40;7.43;;;;;;;-144.47;53.35;53461.91;5028853;28;20048;-74
2022/04/06 08:51:45;;;;;;;17.58;7.45;;;;;;;-144.47;52.61;53469.88;5028608;28;20083;-70
2022/04/06 08:54:11;;;;;;;12.07;5.93;;;;;;;-144.47;52.53;53432.13;5031057;28;21528;-71
2022/04/06 08:56:36;;;;;;;18.52;6.80;;;;;;;-144.47;52.11;53448.00;5033801;28;20030;-68
2022/04/06 08:59:03;;;;;;;19.10;7.30;;;;;;;-144.47;51.70;53450.00;5030894;28;20029;-70
2022/04/06 09:01:31;;;;;;;19.75;7.45;;;;;;;-144.47;51.78;53469.88;5033587;28;20025;-71
2022/04/06 09:03:58;;;;;;;24.60;7.03;;;;;;;-144.47;51.18;53485.75;5030755;28;20024;-69
2022/04/06 09:06:25;;;;;;;18.73;7.63;;;;;;;-144.47;51.00;53495.69;5023501;28;20033;-72
2022/04/06 09:08:50;;;;;;;20.80;7.30;;;;;;;-144.47;51.00;53434.09;5024406;28;20032;-73
2022/04/06 09:11:18;;;;;;;15.43;6.90;;;;;;;-144.47;50.89;53459.94;5027688;28;20064;-71
2022/04/06 09:13:46;;;;;;;20.27;6.75;;;;;;;-144.47;50.53;53455.97;5030796;28;20024;-70
2022/04/06 09:16:14;;;;;;;16.30;6.70;;;;;;;-144.47;50.22;53467.88;5030102;28;20095;-75
2022/04/06 09:18:43;;;;;;;13.73;6.32;;;;;;;-144.47;49.52;53450.00;5032891;28;20048;-72
2022/04/06 09:21:10;;;;;;;28.05;7.00;;;;;;;-144.47;49.78;53477.81;5028445;28;20037;-70
2022/04/06 09:23:36;;;;;;;14.07;5.78;;;;;;;-144.47;50.02;53432.13;5034297;28;20055;-72
2022/04/06 09:26:09;;;;;;;20.20;6.45;;;;;;;-144.47;49.22;53440.06;5029994;28;20364;-71
2022/04/06 09:28:41;;;;;;;21.20;6.40;;;;;;;-144.47;49.36;53444.03;5012343;28;20033;-70
2022/04/06 09:31:08;;;;;;;20.25;6.55;;;;;;;-144.47;49.48;53467.88;5030880;28;20369;-73
2022/04/06 09:33:34;;;;;;;18.48;6.05;;;;;;;-144.47;49.75;53453.97;5035001;28;20114;-70
2022/04/06 09:35:59;;;;;;;19.00;6.05;;;;;;;-144.47;49.48;53444.03;5026755;28;20057;-74
2022/04/06 09:38:29;;;;;;;13.13;5.55;;;;;;;-144.47;49.53;53477.81;5029658;28;20076;-67
2022/04/06 09:41:02;;;;;;;22.13;6.35;;;;;;;-144.47;49.70;53452.00;5037040;28;20087;-70
2022/04/06 09:43:30;;;;;;;21.42;6.53;;;;;;;-144.47;49.64;53432.13;5035921;28;20113;-71
2022/04/06 09:49:10;;;;;;;24.63;6.78;;;;;;;-144.47;48.86;53450.00;5027290;28;20086;-71
2022/04/06 09:51:40;;;;;;;20.73;6.45;;;;;;;-144.47;48.01;53459.94;5030725;28;20533;-73
2022/04/06 09:54:12;;;;;;;13.80;6.22;;;;;;;-144.47;47.89;53444.03;5035924;28;20419;-74
2022/04/06 09:56:38;;;;;;;20.77;6.22;;;;;;;-144.47;47.84;53444.03;5034822;28;20026;-70
2022/04/06 09:59:04;;;;;;;17.67;5.60;;;;;;;-144.47;46.15;53477.81;5030744;28;20032;-70
2022/04/06 10:01:34;;;;;;;20.52;6.05;;;;;;;-144.47;45.90;53475.81;5035144;28;20525;-70
2022/04/06 10:04:09;;;;;;;17.63;4.90;;;;;;;-144.47;44.96;53408.28;5011697;28;20129;-70
2022/04/06 10:06:37;;;;;;;16.83;3.75;;;;;;;-144.47;44.02;53452.00;5029687;28;20041;-71
2022/04/06 10:09:05;;;;;;;10.73;3.97;;;;;;;-144.47;43.52;53459.94;5035686;28;20033;-72
2022/04/06 10:11:33;;;;;;;25.25;4.32;;;;;;;-144.47;43.47;53471.84;5033982;28;20487;-70
2022/04/06 10:14:00;;;;;;;16.67;4.20;;;;;;;-144.47;43.58;53436.09;5029636;28;20044;-74
2022/04/06 10:16:26;;;;;;;19.65;4.00;;;;;;;-144.47;42.97;53416.22;5030324;28;20044;-72
2022/04/06 10:18:52;;;;;;;18.83;4.45;;;;;;;-144.47;43.39;53408.28;5031076;28;20507;-70
2022/04/06 10:21:34;;;;;;;15.50;4.88;;;;;;;-144.47;42.89;53428.16;5029184;28;20505;-70
2022/04/06 10:24:32;;;;;;;14.40;3.50;;;;;;;-144.47;41.46;53473.84;5029032;28;20041;-70
2022/04/06 10:27:03;;;;;;;10.93;2.90;;;;;;;-144.47;40.94;53428.16;5033491;28;20040;-71
2022/04/06 10:29:29;;;;;;;16.92;4.43;;;;;;;-144.47;41.47;53396.38;5026220;28;20053;-69
2022/04/06 10:31:54;;;;;;;12.45;3.22;;;;;;;-144.47;41.71;53414.25;5035410;28;20029;-68
2022/04/06 10:34:24;;;;;;;9.68;2.75;;;;;;;-144.47;40.91;53424.19;5031582;28;20055;-70
2022/04/06 10:37:12;;;;;;;9.48;3.05;;;;;;;-144.47;40.75;53412.25;5032753;28;20033;-71
2022/04/06 10:39:57;;;;;;;8.80;2.78;;;;;;;-144.47;41.12;53442.06;5029981;28;20045;-71
2022/04/06 10:42:34;;;;;;;12.70;3.03;;;;;;;-144.47;41.43;53444.03;5030154;28;20459;-74
2022/04/06 10:45:00;;;;;;;14.30;3.30;;;;;;;-144.47;41.65;53432.13;5028943;28;20045;-71
2022/04/06 10:47:26;;;;;;;12.70;3.38;;;;;;;-144.47;41.98;53408.28;5030868;28;20589;-71
2022/04/06 10:50:10;;;;;;;14.75;3.97;;;;;;;-144.47;41.89;53420.22;5033482;28;20541;-72
2022/04/06 10:52:35;;;;;;;14.40;4.00;;;;;;;-144.47;41.45;53410.28;5034386;28;20032;-71
2022/04/06 10:55:11;;;;;;;11.15;3.78;;;;;;;-144.47;41.05;53416.22;5033911;28;20033;-71
2022/04/06 10:58:05;;;;;;;14.02;3.75;;;;;;;-144.47;41.08;53424.19;5032116;28;20120;-69
2022/04/06 11:00:31;;;;;;;17.15;3.60;;;;;;;-144.47;41.47;53422.19;5027343;28;20088;-69
2022/04/06 11:03:18;;;;;;;13.95;2.88;;;;;;;-144.47;41.70;53440.06;5010266;28;20042;-67
2022/04/06 11:05:52;;;;;;;15.65;3.53;;;;;;;-144.47;41.71;53410.28;5032576;28;20045;-73
2022/04/06 11:11:45;;;;;;;10.52;3.30;;;;;;;-144.47;41.58;53432.13;5032078;28;20048;-72
2022/04/06 11:14:23;;;;;;;13.93;2.70;;;;;;;-144.47;41.38;53426.16;5027705;28;20404;-70